createdAt,value
2018-05-26T00:00:30.518Z,19.90
2018-05-26T00:03:00.832Z,19.90
2018-05-26T00:05:31.270Z,19.80
2018-05-26T00:08:00.399Z,19.70
2018-05-26T00:10:30.482Z,19.60
2018-05-26T00:12:59.564Z,19.60
2018-05-26T00:15:29.492Z,19.50
2018-05-26T00:17:58.611Z,19.40
2018-05-26T00:20:28.873Z,19.50
2018-05-26T00:23:03.908Z,19.60
2018-05-26T00:25:33.473Z,19.50
2018-05-26T00:28:03.377Z,19.50
2018-05-26T00:30:32.682Z,19.50
2018-05-26T00:33:02.328Z,19.50
2018-05-26T00:35:31.573Z,19.50
2018-05-26T00:38:00.787Z,19.50
2018-05-26T00:40:30.552Z,19.30
2018-05-26T00:45:40.984Z,19.30
2018-05-26T00:48:10.231Z,19.30
2018-05-26T00:50:41.112Z,19.20
2018-05-26T00:53:10.536Z,19.10
2018-05-26T00:55:40.546Z,19.10
2018-05-26T00:58:10.112Z,19.20
2018-05-26T01:00:40.314Z,19.20
2018-05-26T01:03:16.658Z,19.10
2018-05-26T01:05:46.719Z,19.10
2018-05-26T01:08:23.131Z,19.10
2018-05-26T01:11:02.033Z,19.00
2018-05-26T01:13:36.826Z,19.00
2018-05-26T01:16:06.920Z,19.00
2018-05-26T01:21:09.397Z,19.00
2018-05-26T01:23:39.360Z,19.00
2018-05-26T01:26:08.712Z,19.00
2018-05-26T01:28:39.772Z,19.00
2018-05-26T01:31:11.082Z,19.00
2018-05-26T01:33:44.625Z,19.10
2018-05-26T01:36:15.173Z,19.10
2018-05-26T01:38:53.246Z,19.00
2018-05-26T01:41:28.285Z,19.00
2018-05-26T01:43:58.846Z,19.00
2018-05-26T01:46:28.541Z,18.90
2018-05-26T01:51:36.475Z,19.00
2018-05-26T01:54:07.196Z,19.00
2018-05-26T01:56:37.363Z,18.90
2018-05-26T01:59:08.452Z,18.90
2018-05-26T02:01:40.167Z,18.90
2018-05-26T02:04:09.568Z,18.90
2018-05-26T02:06:40.397Z,18.90
2018-05-26T02:09:10.309Z,18.90
2018-05-26T02:11:39.981Z,18.80
2018-05-26T02:14:11.132Z,18.80
2018-05-26T02:16:40.399Z,18.70
2018-05-26T02:19:10.629Z,18.80
2018-05-26T02:21:42.234Z,18.70
2018-05-26T02:24:12.804Z,18.60
2018-05-26T02:26:42.217Z,18.70
2018-05-26T02:29:12.355Z,18.60
2018-05-26T02:31:45.133Z,18.50
2018-05-26T02:34:14.578Z,18.50
2018-05-26T02:36:45.501Z,18.50
2018-05-26T02:39:14.836Z,18.50
2018-05-26T02:41:44.923Z,18.50
2018-05-26T02:44:18.120Z,18.50
2018-05-26T02:47:18.358Z,18.40
2018-05-26T02:49:48.445Z,18.40
2018-05-26T02:52:17.733Z,18.40
2018-05-26T02:54:46.918Z,18.40
2018-05-26T02:59:50.680Z,18.40
2018-05-26T03:05:07.602Z,18.50
2018-05-26T03:07:43.007Z,18.50
2018-05-26T03:10:19.924Z,18.50
2018-05-26T03:12:54.742Z,18.40
2018-05-26T03:15:24.846Z,18.30
2018-05-26T03:18:08.907Z,18.20
2018-05-26T03:20:48.238Z,18.20
2018-05-26T03:25:56.940Z,18.20
2018-05-26T03:28:27.807Z,18.20
2018-05-26T03:30:58.645Z,18.20
2018-05-26T03:33:28.087Z,18.20
2018-05-26T03:35:58.566Z,18.20
2018-05-26T03:38:29.407Z,18.20
2018-05-26T03:40:59.711Z,18.20
2018-05-26T03:43:30.904Z,18.20
2018-05-26T03:46:01.448Z,18.20
2018-05-26T03:48:31.877Z,18.30
2018-05-26T03:51:06.095Z,18.20
2018-05-26T03:53:36.953Z,18.40
2018-05-26T03:56:18.311Z,18.40
2018-05-26T03:59:00.611Z,18.30
2018-05-26T04:01:30.862Z,18.30
2018-05-26T04:04:00.466Z,18.40
2018-05-26T04:06:30.481Z,18.40
2018-05-26T04:09:01.758Z,18.40
2018-05-26T04:14:34.662Z,18.40
2018-05-26T04:17:06.043Z,18.40
2018-05-26T04:19:38.625Z,18.50
2018-05-26T04:22:08.401Z,18.40
2018-05-26T04:24:37.875Z,18.50
2018-05-26T04:27:07.359Z,18.50
2018-05-26T04:29:37.442Z,18.50
2018-05-26T04:32:06.860Z,18.40
2018-05-26T04:34:36.241Z,18.40
2018-05-26T04:37:06.405Z,18.40
2018-05-26T04:39:37.848Z,18.30
2018-05-26T04:42:08.156Z,18.30
2018-05-26T04:44:37.781Z,18.40
2018-05-26T04:47:07.257Z,18.30
2018-05-26T04:49:39.387Z,18.30
2018-05-26T04:52:08.732Z,18.40
2018-05-26T04:54:38.022Z,18.40
2018-05-26T04:57:07.207Z,18.40
2018-05-26T04:59:36.820Z,18.30
2018-05-26T05:02:06.202Z,18.30
2018-05-26T05:04:37.591Z,18.30
2018-05-26T05:07:06.913Z,18.30
2018-05-26T05:09:36.997Z,18.20
2018-05-26T05:12:10.077Z,18.30
2018-05-26T05:14:40.510Z,18.30
2018-05-26T05:17:10.186Z,18.30
2018-05-26T05:19:39.463Z,18.20
2018-05-26T05:22:08.691Z,18.20
2018-05-26T05:24:38.487Z,18.30
2018-05-26T05:27:09.334Z,18.30
2018-05-26T05:29:42.703Z,18.30
2018-05-26T05:34:45.768Z,18.30
2018-05-26T05:37:15.440Z,18.30
2018-05-26T05:39:45.645Z,18.30
2018-05-26T05:42:16.578Z,18.40
2018-05-26T05:44:46.824Z,18.30
2018-05-26T05:47:16.618Z,18.40
2018-05-26T05:49:53.556Z,18.30
2018-05-26T05:52:27.941Z,18.30
2018-05-26T05:54:58.225Z,18.20
2018-05-26T05:57:29.019Z,18.10
2018-05-26T06:00:00.551Z,18.10
2018-05-26T06:02:29.899Z,18.00
2018-05-26T06:04:59.101Z,18.00
2018-05-26T06:07:28.271Z,18.00
2018-05-26T06:09:58.647Z,18.00
2018-05-26T06:12:27.881Z,17.90
2018-05-26T06:15:00.725Z,17.70
2018-05-26T06:17:29.917Z,17.80
2018-05-26T06:19:59.130Z,17.70
2018-05-26T06:22:28.510Z,17.60
2018-05-26T06:24:58.642Z,17.60
2018-05-26T06:27:28.594Z,17.60
2018-05-26T06:29:59.506Z,17.50
2018-05-26T06:32:28.862Z,17.50
2018-05-26T06:34:58.035Z,17.50
2018-05-26T06:37:27.238Z,17.50
2018-05-26T06:39:56.425Z,17.40
2018-05-26T06:42:25.708Z,17.40
2018-05-26T06:44:55.358Z,17.50
2018-05-26T06:47:24.536Z,17.50
2018-05-26T06:49:53.759Z,17.50
2018-05-26T06:52:22.997Z,17.40
2018-05-26T06:54:52.179Z,17.40
2018-05-26T06:57:22.177Z,17.60
2018-05-26T06:59:51.671Z,17.50
2018-05-26T07:02:20.921Z,17.70
2018-05-26T07:04:52.366Z,17.80
2018-05-26T07:07:21.561Z,17.80
2018-05-26T07:09:50.862Z,17.80
2018-05-26T07:12:20.174Z,17.80
2018-05-26T07:14:49.541Z,17.80
2018-05-26T07:17:20.293Z,17.90
2018-05-26T07:19:49.901Z,17.90
2018-05-26T07:22:19.107Z,17.90
2018-05-26T07:24:48.373Z,18.00
2018-05-26T07:27:17.780Z,17.90
2018-05-26T07:29:51.969Z,17.80
2018-05-26T07:32:21.434Z,17.70
2018-05-26T07:34:50.858Z,17.80
2018-05-26T07:37:20.866Z,17.70
2018-05-26T07:39:50.110Z,17.80
2018-05-26T07:42:20.470Z,17.80
2018-05-26T07:44:49.716Z,17.80
2018-05-26T07:47:19.068Z,17.80
2018-05-26T07:49:48.487Z,17.80
2018-05-26T07:52:17.808Z,17.80
2018-05-26T07:54:47.055Z,17.80
2018-05-26T07:57:16.407Z,17.90
2018-05-26T07:59:45.686Z,18.00
2018-05-26T08:02:14.840Z,17.90
2018-05-26T08:04:44.827Z,17.80
2018-05-26T08:07:14.891Z,17.80
2018-05-26T08:09:44.145Z,17.80
2018-05-26T08:12:13.438Z,17.90
2018-05-26T08:14:42.809Z,17.80
2018-05-26T08:17:12.438Z,17.80
2018-05-26T08:19:42.721Z,17.80
2018-05-26T08:22:13.161Z,17.80
2018-05-26T08:24:42.378Z,17.80
2018-05-26T08:27:11.639Z,17.80
2018-05-26T08:29:41.194Z,17.80
2018-05-26T08:32:10.475Z,17.80
2018-05-26T08:34:39.656Z,17.70
2018-05-26T08:37:08.890Z,17.70
2018-05-26T08:39:38.383Z,17.70
2018-05-26T08:42:07.560Z,17.70
2018-05-26T08:44:36.931Z,17.70
2018-05-26T08:47:06.206Z,17.70
2018-05-26T08:49:35.658Z,17.80
2018-05-26T08:52:05.025Z,17.90
2018-05-26T08:54:34.222Z,17.90
2018-05-26T08:57:04.248Z,18.00
2018-05-26T08:59:34.280Z,18.00
2018-05-26T09:02:03.580Z,18.00
2018-05-26T09:04:32.819Z,18.00
2018-05-26T09:07:02.158Z,18.00
2018-05-26T09:09:31.361Z,17.90
2018-05-26T09:12:00.548Z,17.90
2018-05-26T09:14:30.543Z,17.90
2018-05-26T09:17:00.589Z,17.90
2018-05-26T09:19:29.864Z,17.80
2018-05-26T09:21:59.905Z,17.80
2018-05-26T09:24:29.511Z,17.80
2018-05-26T09:26:58.664Z,17.80
2018-05-26T09:29:27.847Z,17.70
2018-05-26T09:31:57.048Z,17.70
2018-05-26T09:34:26.248Z,17.80
2018-05-26T09:36:55.556Z,17.80
2018-05-26T09:39:24.755Z,17.70
2018-05-26T09:41:53.983Z,17.60
2018-05-26T09:44:23.299Z,17.50
2018-05-26T09:46:52.618Z,17.50
2018-05-26T09:49:21.933Z,17.50
2018-05-26T09:51:51.138Z,17.50
2018-05-26T09:54:20.402Z,17.50
2018-05-26T09:56:49.851Z,17.40
2018-05-26T09:59:19.773Z,17.40
2018-05-26T10:01:49.734Z,17.50
2018-05-26T10:04:19.120Z,17.40
2018-05-26T10:06:48.384Z,17.40
2018-05-26T10:09:17.660Z,17.40
2018-05-26T10:11:46.930Z,17.40
2018-05-26T10:14:16.242Z,17.40
2018-05-26T10:16:45.469Z,17.40
2018-05-26T10:19:14.590Z,17.50
2018-05-26T10:21:44.600Z,17.60
2018-05-26T10:24:14.661Z,17.60
2018-05-26T10:26:44.110Z,17.60
2018-05-26T10:29:13.354Z,17.50
2018-05-26T10:31:42.543Z,17.50
2018-05-26T10:34:11.738Z,17.60
2018-05-26T10:36:40.957Z,17.60
2018-05-26T10:39:10.119Z,17.60
2018-05-26T10:41:40.151Z,17.80
2018-05-26T10:44:09.374Z,17.80
2018-05-26T10:46:38.582Z,17.80
2018-05-26T10:49:07.927Z,17.90
2018-05-26T10:51:37.021Z,17.90
2018-05-26T10:54:07.012Z,17.90
2018-05-26T10:56:36.218Z,17.80
2018-05-26T10:59:05.414Z,17.70
2018-05-26T11:01:35.519Z,17.80
2018-05-26T11:04:05.851Z,17.80
2018-05-26T11:06:47.482Z,17.70
2018-05-26T11:09:16.776Z,17.70
2018-05-26T11:11:46.224Z,17.70
2018-05-26T11:14:15.578Z,17.60
2018-05-26T11:16:44.869Z,17.60
2018-05-26T11:19:14.532Z,17.60
2018-05-26T11:21:43.733Z,17.50
2018-05-26T11:24:13.065Z,17.60
2018-05-26T11:26:44.857Z,17.60
2018-05-26T11:29:14.617Z,17.60
2018-05-26T11:31:44.661Z,17.50
2018-05-26T11:34:14.036Z,17.50
2018-05-26T11:36:43.703Z,17.50
2018-05-26T11:39:12.860Z,17.60
2018-05-26T11:41:42.042Z,17.60
2018-05-26T11:44:13.032Z,17.60
2018-05-26T11:46:42.228Z,17.60
2018-05-26T11:49:11.924Z,17.60
2018-05-26T11:51:41.330Z,17.60
2018-05-26T11:54:12.504Z,17.60
2018-05-26T11:56:41.651Z,17.50
2018-05-26T11:59:10.897Z,17.50
2018-05-26T12:01:40.953Z,17.50
2018-05-26T12:04:10.311Z,17.40
2018-05-26T12:06:43.252Z,17.50
2018-05-26T12:09:12.605Z,17.50
2018-05-26T12:11:57.787Z,17.50
2018-05-26T12:14:29.004Z,17.60
2018-05-26T12:16:58.335Z,17.70
2018-05-26T12:19:29.448Z,17.60
2018-05-26T12:21:58.687Z,17.70
2018-05-26T12:24:29.040Z,17.70
2018-05-26T12:26:59.491Z,17.70
2018-05-26T12:29:29.678Z,17.70
2018-05-26T12:32:00.141Z,17.80
2018-05-26T12:34:31.879Z,17.90
2018-05-26T12:37:29.793Z,17.90
2018-05-26T12:40:00.946Z,17.90
2018-05-26T12:42:32.705Z,18.00
2018-05-26T12:45:04.151Z,18.00
2018-05-26T12:47:41.569Z,18.00
2018-05-26T12:50:11.762Z,17.90
2018-05-26T12:52:42.125Z,18.00
2018-05-26T12:55:12.225Z,18.00
2018-05-26T12:57:42.376Z,18.10
2018-05-26T13:00:12.053Z,18.20
2018-05-26T13:02:41.418Z,18.30
2018-05-26T13:05:11.263Z,18.40
2018-05-26T13:21:36.733Z,18.90
2018-05-26T13:24:09.878Z,19.00
2018-05-26T13:26:39.853Z,19.10
2018-05-26T13:29:10.380Z,19.10
2018-05-26T13:31:41.454Z,19.00
2018-05-26T13:34:12.083Z,19.00
2018-05-26T13:36:41.829Z,19.20
2018-05-26T13:39:11.028Z,19.20
2018-05-26T13:41:41.459Z,19.30
2018-05-26T13:44:14.007Z,19.50
2018-05-26T13:46:53.451Z,19.60
2018-05-26T13:57:28.569Z,19.80
2018-05-26T14:02:55.576Z,19.90
2018-05-26T14:05:29.821Z,19.90
2018-05-26T14:08:12.124Z,19.90
2018-05-26T14:17:43.169Z,20.10
2018-05-26T14:22:51.835Z,20.50
2018-05-26T14:28:14.183Z,21.00
2018-05-26T14:33:21.052Z,21.60
2018-05-26T14:35:53.698Z,22.30
2018-05-26T14:39:02.275Z,22.90
2018-05-26T14:41:44.327Z,23.40
2018-05-26T14:44:48.849Z,23.60
2018-05-26T14:51:14.662Z,24.70
2018-05-26T15:30:17.838Z,26.70
2018-05-26T15:32:57.563Z,26.40
2018-05-26T15:58:54.525Z,27.30
2018-05-26T16:01:35.477Z,26.90
2018-05-26T16:04:17.187Z,26.10
2018-05-26T16:06:50.876Z,26.10
2018-05-26T16:09:24.248Z,26.10
2018-05-26T16:12:13.140Z,26.70
2018-05-26T16:20:37.254Z,28.50
2018-05-26T16:23:21.942Z,29.00
2018-05-26T16:36:35.653Z,29.10
2018-05-26T16:46:22.907Z,27.30
2018-05-26T16:48:54.977Z,27.00
2018-05-26T16:51:26.206Z,27.10
2018-05-26T16:53:57.249Z,28.90
2018-05-26T16:56:28.648Z,28.80
2018-05-26T16:59:05.102Z,29.40
2018-05-26T17:01:36.508Z,30.30
2018-05-26T17:04:07.513Z,30.00
2018-05-26T17:09:37.142Z,31.40
2018-05-26T18:00:46.335Z,30.80
2018-05-26T18:03:24.598Z,30.80
2018-05-26T18:05:57.660Z,30.50
2018-05-26T18:14:13.443Z,29.50
2018-05-26T18:16:45.498Z,29.40
2018-05-26T18:19:17.105Z,29.50
2018-05-26T18:21:49.106Z,29.60
2018-05-26T18:24:19.842Z,30.10
2018-05-26T18:37:49.079Z,30.90
2018-05-26T18:43:28.972Z,32.40
2018-05-26T18:46:00.994Z,31.90
2018-05-26T18:51:17.982Z,31.30
2018-05-26T18:53:48.393Z,31.50
2018-05-26T18:56:22.542Z,30.30
2018-05-26T19:01:37.043Z,29.80
2018-05-26T19:04:14.704Z,29.80
2018-05-26T19:06:44.743Z,30.60
2018-05-26T19:09:14.469Z,30.30
2018-05-26T19:11:46.989Z,30.50
2018-05-26T19:14:19.272Z,31.10
2018-05-26T19:16:56.684Z,30.90
2018-05-26T19:19:28.400Z,30.30
2018-05-26T19:22:00.479Z,30.00
2018-05-26T19:28:08.520Z,31.30
2018-05-26T19:30:41.731Z,31.20
2018-05-26T19:33:30.975Z,30.80
2018-05-26T19:41:47.390Z,31.70
2018-05-26T19:44:29.040Z,31.40
2018-05-26T19:47:03.154Z,31.00
2018-05-26T19:49:42.559Z,30.40
2018-05-26T19:52:13.337Z,29.80
2018-05-26T19:54:48.030Z,29.60
2018-05-26T19:57:17.748Z,30.10
2018-05-26T20:00:00.302Z,30.10
2018-05-26T20:02:43.332Z,29.90
2018-05-26T20:05:13.275Z,29.50
2018-05-26T20:07:48.777Z,29.90
2018-05-26T20:10:38.304Z,30.20
2018-05-26T20:13:18.299Z,30.00
2018-05-26T20:15:49.979Z,30.10
2018-05-26T20:27:31.881Z,28.70
2018-05-26T20:30:23.068Z,29.10
2018-05-26T20:32:55.237Z,29.30
2018-05-26T20:35:29.852Z,29.30
2018-05-26T20:40:57.279Z,28.70
2018-05-26T20:43:30.643Z,28.90
2018-05-26T20:46:04.758Z,29.50
2018-05-26T20:51:45.021Z,29.10
2018-05-26T20:57:35.658Z,29.50
2018-05-26T21:00:09.602Z,30.00
2018-05-26T21:05:19.638Z,30.20
2018-05-26T21:10:39.935Z,30.30
2018-05-26T21:13:12.744Z,30.30
2018-05-26T21:21:08.102Z,30.10
2018-05-26T21:23:51.142Z,29.90
2018-05-26T21:26:22.346Z,29.50
2018-05-26T21:28:51.631Z,29.60
2018-05-26T21:31:23.058Z,29.40
2018-05-26T21:33:58.771Z,29.40
2018-05-26T21:36:33.847Z,29.60
2018-05-26T21:44:20.020Z,28.80
2018-05-26T21:46:49.174Z,28.70
2018-05-26T21:49:18.896Z,28.80
2018-05-26T21:51:50.687Z,28.60
2018-05-26T21:54:21.495Z,28.50
2018-05-26T21:56:50.772Z,28.70
2018-05-26T21:59:20.065Z,28.30
2018-05-26T22:01:58.066Z,28.00
2018-05-26T22:04:39.643Z,27.70
2018-05-26T22:07:14.720Z,27.30
2018-05-26T22:09:48.034Z,27.40
2018-05-26T22:12:24.755Z,27.40
2018-05-26T22:14:54.905Z,27.30
2018-05-26T22:17:25.896Z,27.30
2018-05-26T22:19:56.893Z,27.30
2018-05-26T22:22:37.042Z,27.20
2018-05-26T22:25:09.867Z,27.10
2018-05-26T22:27:45.728Z,26.90
2018-05-26T22:30:22.539Z,26.70
2018-05-26T22:32:56.277Z,26.40
2018-05-26T22:35:34.669Z,26.10
2018-05-26T22:38:11.145Z,25.90
2018-05-26T22:40:54.499Z,25.80
2018-05-26T22:43:25.649Z,25.60
2018-05-26T22:45:55.384Z,25.40
2018-05-26T22:48:32.550Z,25.30
2018-05-26T22:51:02.619Z,25.10
2018-05-26T22:53:34.597Z,25.00
2018-05-26T22:58:42.013Z,24.60
2018-05-26T23:01:16.277Z,24.40
2018-05-26T23:03:46.465Z,24.40
2018-05-26T23:06:17.148Z,24.00
2018-05-26T23:08:50.858Z,24.00
2018-05-26T23:14:15.977Z,23.90
2018-05-26T23:16:47.414Z,23.90
2018-05-26T23:19:23.117Z,23.80
2018-05-26T23:24:42.985Z,23.70
2018-05-26T23:27:12.318Z,23.70
2018-05-26T23:29:47.707Z,23.60
2018-05-26T23:32:23.189Z,23.60
2018-05-26T23:34:58.714Z,23.50
2018-05-26T23:37:41.453Z,23.60
2018-05-26T23:40:47.489Z,23.50
2018-05-26T23:43:19.433Z,23.50
2018-05-26T23:45:49.695Z,23.50
2018-05-26T23:48:22.321Z,23.30
2018-05-26T23:53:27.662Z,23.10
2018-05-26T23:55:59.957Z,23.00
2018-05-26T23:58:35.268Z,23.00
